Time;durP1;ratioP1;P1;durP2;ratioP2;P2;SDS_P1;SDS_P2;PMS_P1;PMS_P2;Temp;Humidity;BMP_temperature;BMP_pressure;BME280_temperature;BME280_humidity;BME280_pressure;Samples;Min_cycle;Max_cycle;Signal;HPM_P1;HPM_P2
2021/08/26 00:01:13;;;;;;;10.00;4.93;;;;;;;21.27;66.29;100029.28;5032320;28;20164;-65
2021/08/26 00:06:25;;;;;;;16.45;5.43;;;;;;;21.27;66.30;100028.47;5032465;28;20124;-64
2021/08/26 00:08:53;;;;;;;14.20;5.97;;;;;;;21.35;66.00;100027.47;5032258;28;20133;-64
2021/08/26 00:11:24;;;;;;;9.50;4.72;;;;;;;21.39;66.00;100025.56;5033555;28;20133;-65
2021/08/26 00:13:52;;;;;;;13.93;5.70;;;;;;;21.15;66.06;99986.78;5051166;28;20130;-64
2021/08/26 00:16:26;;;;;;;15.13;4.82;;;;;;;21.39;65.87;100027.56;5050663;28;20461;-64
2021/08/26 00:18:54;;;;;;;14.85;6.13;;;;;;;21.48;65.77;100028.22;5052221;28;20055;-64
2021/08/26 00:21:21;;;;;;;17.30;6.28;;;;;;;21.30;65.85;100005.03;5052055;28;20084;-64
2021/08/26 00:23:48;;;;;;;16.63;5.47;;;;;;;21.47;65.73;100021.72;5051896;28;20081;-64
2021/08/26 00:26:15;;;;;;;13.98;6.07;;;;;;;21.55;65.93;100021.91;5039078;28;20081;-64
2021/08/26 00:28:42;;;;;;;8.15;4.85;;;;;;;21.52;65.54;100018.59;5032257;28;20080;-64
2021/08/26 00:31:08;;;;;;;14.63;5.85;;;;;;;21.43;65.66;99998.06;5032589;28;20124;-64
2021/08/26 00:33:36;;;;;;;19.80;6.22;;;;;;;21.66;65.41;100028.66;5031886;28;20052;-64
2021/08/26 00:36:03;;;;;;;15.98;5.68;;;;;;;;;;5031935;28;20149;-64
2021/08/26 00:38:30;;;;;;;12.90;5.10;;;;;;;21.65;65.32;100033.53;5031970;28;20129;-64
2021/08/26 00:41:00;;;;;;;11.25;5.22;;;;;;;21.69;65.52;100034.44;5031645;28;20128;-64
2021/08/26 00:43:29;;;;;;;11.43;5.15;;;;;;;21.69;65.18;100019.41;5031879;28;20089;-64
2021/08/26 00:45:58;;;;;;;;;;;;;;;21.70;65.30;100032.41;5037509;28;20076;-64
2021/08/26 00:48:28;;;;;;;15.07;6.28;;;;;;;21.73;65.33;100028.84;5051111;28;19921;-64
2021/08/26 00:50:56;;;;;;;;;;;;;;;21.69;64.93;100027.94;5052258;28;20464;-64
2021/08/26 00:53:24;;;;;;;11.88;5.30;;;;;;;21.70;65.29;100041.75;5051609;28;20005;-64
2021/08/26 00:55:55;;;;;;;12.35;5.50;;;;;;;21.54;65.35;100021.09;5050629;28;20140;-64
2021/08/26 00:58:22;;;;;;;11.82;5.30;;;;;;;21.71;65.08;100048.28;5051671;28;20515;-63
2021/08/26 01:00:52;;;;;;;11.65;4.88;;;;;;;21.69;65.76;100039.28;5048536;28;20111;-64
2021/08/26 01:03:26;;;;;;;;;;;;;;;21.60;65.12;100025.25;5051968;28;20080;-63
2021/08/26 01:06:02;;;;;;;13.38;5.07;;;;;;;21.65;65.31;100032.72;5051297;28;19921;-63
2021/08/26 01:08:45;;;;;;;10.93;5.70;;;;;;;21.58;65.32;100019.16;5050350;28;20496;-63
2021/08/26 01:11:12;;;;;;;14.75;5.68;;;;;;;21.66;65.36;100031.50;5031868;28;20073;-63
2021/08/26 01:13:41;;;;;;;12.68;6.10;;;;;;;21.65;65.29;100027.84;5031332;28;20049;-63
2021/08/26 01:16:12;;;;;;;20.05;6.60;;;;;;;21.63;65.29;100023.72;5031584;28;20457;-63
2021/08/26 01:18:47;;;;;;;17.00;6.30;;;;;;;21.53;65.33;100020.22;5031571;28;20046;-63
2021/08/26 01:21:16;;;;;;;20.95;6.25;;;;;;;21.65;65.38;100022.16;5032130;28;20089;-63
2021/08/26 01:23:49;;;;;;;15.07;5.90;;;;;;;21.69;65.39;100027.94;5030538;28;20095;-63
2021/08/26 01:26:30;;;;;;;18.40;5.90;;;;;;;21.65;65.34;100025.00;5031835;28;20132;-63
2021/08/26 01:29:00;;;;;;;11.60;6.15;;;;;;;21.64;65.30;100025.34;5033152;28;20057;-64
2021/08/26 01:31:26;;;;;;;;;;;;;;;21.57;65.25;100025.19;5035753;28;20124;-64
2021/08/26 01:33:54;;;;;;;11.65;5.68;;;;;;;21.60;65.37;100030.13;5034775;28;19925;-64
2021/08/26 01:36:34;;;;;;;14.50;5.75;;;;;;;21.46;65.29;100014.38;5034965;28;20559;-64
2021/08/26 01:39:07;;;;;;;14.93;6.38;;;;;;;21.58;65.42;100033.34;5035118;28;20509;-64
2021/08/26 01:41:38;;;;;;;12.45;5.63;;;;;;;21.56;65.43;100026.38;5034917;28;20127;-64
2021/08/26 01:44:06;;;;;;;14.95;5.80;;;;;;;21.63;65.39;100032.22;5034729;28;20557;-64
2021/08/26 01:46:33;;;;;;;22.35;5.75;;;;;;;21.53;65.58;100025.09;5034674;28;20084;-64
2021/08/26 01:49:00;;;;;;;13.23;6.65;;;;;;;21.62;65.35;100041.97;5033539;28;20077;-64
2021/08/26 01:51:27;;;;;;;12.90;5.15;;;;;;;21.51;65.80;100027.50;5033474;28;20140;-64
2021/08/26 01:53:55;;;;;;;16.88;5.90;;;;;;;21.58;65.72;100032.53;5034323;28;20132;-64
2021/08/26 01:56:22;;;;;;;20.65;6.78;;;;;;;21.23;65.54;99976.41;5035335;28;20072;-64
2021/08/26 01:58:49;;;;;;;13.77;5.60;;;;;;;21.55;65.43;100036.09;5034659;28;20080;-64
2021/08/26 02:01:16;;;;;;;10.85;5.90;;;;;;;21.51;65.63;100021.81;5034436;28;20136;-64
2021/08/26 02:03:44;;;;;;;18.80;7.53;;;;;;;21.59;65.59;100034.16;5034637;28;20051;-64
2021/08/26 02:06:11;;;;;;;16.83;5.57;;;;;;;21.57;65.63;100025.19;5034367;28;20111;-64
2021/08/26 02:08:38;;;;;;;15.30;6.18;;;;;;;21.52;65.78;100024.28;5034135;28;20088;-64
2021/08/26 02:11:04;;;;;;;20.13;6.45;;;;;;;21.41;65.75;100016.69;5034513;28;20121;-64
2021/08/26 02:13:31;;;;;;;17.92;6.22;;;;;;;21.39;65.56;100019.06;5042313;28;20081;-64
2021/08/26 02:15:58;;;;;;;19.90;6.20;;;;;;;21.41;65.93;100028.88;5034395;28;20100;-64
2021/08/26 02:18:25;;;;;;;14.30;5.93;;;;;;;21.24;66.06;100001.63;5034354;28;20045;-64
2021/08/26 02:20:52;;;;;;;15.05;6.90;;;;;;;21.43;65.69;100029.31;5033883;28;20505;-64
2021/08/26 02:23:19;;;;;;;10.75;5.20;;;;;;;21.42;65.74;100021.97;5034042;28;20137;-64
2021/08/26 02:25:45;;;;;;;16.88;5.18;;;;;;;21.48;65.86;100034.72;5034414;28;20132;-64
2021/08/26 02:28:12;;;;;;;14.50;5.70;;;;;;;21.35;65.68;100007.59;5034195;28;20132;-64
2021/08/26 02:30:39;;;;;;;18.42;6.63;;;;;;;21.38;65.62;100006.88;5034515;28;20504;-64
2021/08/26 02:33:06;;;;;;;11.18;5.70;;;;;;;21.44;65.62;100018.78;5034097;28;20144;-64
2021/08/26 02:35:33;;;;;;;16.95;6.75;;;;;;;21.50;65.62;100028.66;5032609;28;20087;-64
2021/08/26 02:38:00;;;;;;;16.10;5.30;;;;;;;21.42;65.64;100019.13;5033385;28;20087;-64
2021/08/26 02:40:27;;;;;;;16.27;6.53;;;;;;;21.49;65.33;100025.00;5033424;28;20080;-64
2021/08/26 02:42:53;;;;;;;17.70;5.80;;;;;;;21.50;65.58;100029.50;5033966;28;20461;-64
2021/08/26 02:45:20;;;;;;;16.20;6.38;;;;;;;21.51;65.47;100025.47;5033596;28;20158;-64
2021/08/26 02:47:48;;;;;;;18.05;6.75;;;;;;;21.52;65.51;100024.28;5032943;28;20420;-64
2021/08/26 02:50:15;;;;;;;16.17;6.25;;;;;;;21.50;65.37;100025.81;5033837;28;20612;-64
2021/08/26 02:52:42;;;;;;;18.88;6.18;;;;;;;21.46;65.61;100024.91;5032937;28;20571;-64
2021/08/26 02:55:09;;;;;;;12.82;5.30;;;;;;;21.41;65.87;100016.69;5033612;28;20132;-64
2021/08/26 02:57:36;;;;;;;10.48;5.03;;;;;;;21.30;66.31;100010.69;5032995;28;20132;-64
2021/08/26 03:00:05;;;;;;;17.88;6.22;;;;;;;21.36;65.88;100019.78;5033200;28;20050;-64
2021/08/26 03:02:32;;;;;;;17.45;6.72;;;;;;;21.32;65.91;100025.34;5041962;28;20056;-65
2021/08/26 03:04:59;;;;;;;19.00;7.28;;;;;;;21.31;65.88;100029.38;5051920;28;20056;-64
2021/08/26 03:07:26;;;;;;;15.82;6.15;;;;;;;21.28;66.05;100027.28;5053311;28;20095;-64
2021/08/26 03:09:53;;;;;;;15.02;5.63;;;;;;;21.20;66.14;100025.44;5039174;28;20085;-64
2021/08/26 03:12:20;;;;;;;15.10;5.88;;;;;;;21.07;66.30;100013.34;5033153;28;20091;-64
2021/08/26 03:14:46;;;;;;;19.13;6.05;;;;;;;20.99;66.36;100000.13;5032929;28;20560;-64
2021/08/26 03:17:13;;;;;;;17.83;5.65;;;;;;;21.16;66.38;100027.34;5032910;28;20137;-64
2021/08/26 03:19:40;;;;;;;15.90;5.82;;;;;;;21.15;66.34;100020.03;5033594;28;20129;-64
2021/08/26 03:22:07;;;;;;;14.82;6.22;;;;;;;21.06;66.54;100015.34;5032947;28;20089;-63
2021/08/26 03:24:34;;;;;;;18.50;6.43;;;;;;;21.05;66.64;100016.53;5032531;28;20056;-63
2021/08/26 03:27:01;;;;;;;12.73;6.72;;;;;;;21.02;66.54;100011.56;5033010;28;20121;-64
2021/08/26 03:29:27;;;;;;;15.15;6.70;;;;;;;21.06;66.72;100014.53;5033145;28;20124;-64
2021/08/26 03:31:54;;;;;;;19.88;6.63;;;;;;;20.97;66.56;100006.19;5032639;28;20092;-64
2021/08/26 03:34:21;;;;;;;13.50;6.78;;;;;;;20.77;66.84;99981.69;5032886;28;20052;-63
2021/08/26 03:36:48;;;;;;;12.18;6.10;;;;;;;20.93;66.87;100008.09;5033382;28;20120;-63
2021/08/26 03:39:15;;;;;;;16.80;6.78;;;;;;;20.97;67.01;100013.88;5032911;28;20470;-63
2021/08/26 03:41:42;;;;;;;15.48;6.45;;;;;;;20.89;66.88;100001.50;5032920;28;20125;-63
2021/08/26 03:44:08;;;;;;;20.50;7.50;;;;;;;20.91;66.75;100003.97;5032820;28;20128;-64
2021/08/26 03:46:35;;;;;;;19.73;7.43;;;;;;;20.92;67.00;100006.47;5032686;28;20468;-64
2021/08/26 03:49:02;;;;;;;14.25;7.28;;;;;;;20.69;67.37;99986.34;5032445;28;20048;-64
2021/08/26 03:51:29;;;;;;;12.98;5.97;;;;;;;20.90;67.22;100017.34;5032159;28;20137;-64
2021/08/26 03:53:56;;;;;;;14.18;6.68;;;;;;;20.80;67.36;100009.34;5033028;28;20049;-64
2021/08/26 03:56:23;;;;;;;12.60;6.18;;;;;;;20.84;67.26;100018.78;5032366;28;20149;-64
2021/08/26 03:58:49;;;;;;;17.50;6.47;;;;;;;20.92;66.84;100016.97;5032610;28;20133;-64
2021/08/26 04:01:16;;;;;;;19.88;8.07;;;;;;;20.93;67.19;100005.25;5037269;28;20084;-64
2021/08/26 04:03:43;;;;;;;16.58;7.28;;;;;;;20.93;67.19;100002.41;5041092;28;20124;-64
2021/08/26 04:06:10;;;;;;;17.77;6.65;;;;;;;20.72;66.90;99962.13;5042144;28;20132;-64
2021/08/26 04:08:37;;;;;;;20.50;7.25;;;;;;;21.05;66.87;100004.34;5032268;28;20088;-64
2021/08/26 04:11:04;;;;;;;14.98;6.60;;;;;;;21.08;66.92;100003.63;5017769;28;20057;-64
2021/08/26 04:13:31;;;;;;;24.10;7.03;;;;;;;20.98;66.92;99993.63;5032124;28;20059;-65
2021/08/26 04:15:58;;;;;;;16.52;6.07;;;;;;;20.84;67.23;99990.41;5032218;28;20085;-64
2021/08/26 04:18:25;;;;;;;13.40;7.70;;;;;;;20.88;67.24;99999.84;5032252;28;20129;-64
2021/08/26 04:20:52;;;;;;;14.43;6.28;;;;;;;20.87;67.32;100003.06;5032523;28;20140;-65
2021/08/26 04:23:19;;;;;;;14.20;7.00;;;;;;;20.76;67.28;99992.22;5032121;28;20068;-64
2021/08/26 04:25:45;;;;;;;17.17;6.07;;;;;;;20.84;67.45;99998.91;5032017;28;20088;-64
2021/08/26 04:28:12;;;;;;;13.52;5.93;;;;;;;20.80;67.56;100009.34;5032665;28;20088;-64
2021/08/26 04:30:39;;;;;;;14.50;6.55;;;;;;;20.78;67.39;100014.56;5032505;28;20437;-64
2021/08/26 04:33:06;;;;;;;13.13;6.45;;;;;;;20.58;67.70;99991.72;5032082;28;20088;-64
2021/08/26 04:35:35;;;;;;;16.08;7.50;;;;;;;20.72;67.65;100008.34;5032189;28;20077;-64
2021/08/26 04:38:02;;;;;;;12.23;6.40;;;;;;;20.75;67.70;100018.09;5031790;28;20081;-64
2021/08/26 04:40:29;;;;;;;19.88;7.38;;;;;;;20.81;67.52;100031.69;5031818;28;20417;-65
2021/08/26 04:42:56;;;;;;;15.90;6.75;;;;;;;20.81;67.20;100023.16;5031959;28;20136;-65
2021/08/26 04:45:23;;;;;;;17.85;6.40;;;;;;;20.90;67.32;100042.88;5032775;28;20133;-66
2021/08/26 04:47:49;;;;;;;15.73;6.50;;;;;;;20.88;67.28;100033.91;5031847;28;20132;-66
2021/08/26 04:50:17;;;;;;;10.38;6.05;;;;;;;20.93;67.30;100036.47;5032061;28;20129;-68
2021/08/26 04:52:44;;;;;;;16.25;6.15;;;;;;;20.89;67.23;100034.72;5031625;28;20104;-65
2021/08/26 04:55:11;;;;;;;12.75;6.43;;;;;;;20.96;67.05;100044.28;5031891;28;20512;-65
2021/08/26 04:57:38;;;;;;;15.07;7.00;;;;;;;20.94;67.04;100038.13;5031885;28;20580;-64
2021/08/26 05:00:06;;;;;;;16.67;6.78;;;;;;;20.85;66.89;100028.94;5031813;28;20081;-65
2021/08/26 05:02:33;;;;;;;23.45;7.75;;;;;;;20.89;67.32;100048.91;5032244;28;20508;-65
2021/08/26 05:05:00;;;;;;;16.10;7.05;;;;;;;20.93;67.16;100064.88;5035482;28;20132;-64
2021/08/26 05:07:27;;;;;;;16.35;6.35;;;;;;;20.91;67.25;100055.88;5035457;28;20073;-64
2021/08/26 05:09:53;;;;;;;15.93;6.70;;;;;;;20.92;67.21;100063.22;5035842;28;20096;-64
2021/08/26 05:12:20;;;;;;;18.10;6.82;;;;;;;20.91;67.24;100067.22;5035420;28;20045;-64
2021/08/26 05:14:47;;;;;;;15.30;6.28;;;;;;;20.87;67.43;100066.31;5035447;28;20145;-64
2021/08/26 05:17:14;;;;;;;12.85;6.32;;;;;;;20.88;67.35;100058.63;5035243;28;20128;-64
2021/08/26 05:19:41;;;;;;;18.80;6.80;;;;;;;20.80;67.04;100049.06;5054460;28;20132;-64
2021/08/26 05:22:07;;;;;;;23.48;7.47;;;;;;;20.91;67.54;100072.09;5055214;28;20500;-64
2021/08/26 05:24:34;;;;;;;12.23;6.03;;;;;;;20.88;67.50;100070.78;5053157;28;20041;-64
2021/08/26 05:27:01;;;;;;;15.20;6.22;;;;;;;20.87;67.62;100066.31;5050070;28;20046;-64
2021/08/26 05:29:28;;;;;;;16.77;6.20;;;;;;;20.70;67.82;100052.44;5044602;28;20389;-65
2021/08/26 05:31:55;;;;;;;16.52;6.47;;;;;;;20.76;67.81;100066.00;5054997;28;20127;-64
2021/08/26 05:34:22;;;;;;;17.58;6.30;;;;;;;20.71;67.64;100068.25;5055183;28;20460;-65
2021/08/26 05:36:49;;;;;;;18.40;6.43;;;;;;;20.59;68.23;100052.13;5046640;28;20503;-64
2021/08/26 05:39:16;;;;;;;11.77;6.13;;;;;;;20.70;67.89;100072.28;5055357;28;20140;-65
2021/08/26 05:41:44;;;;;;;16.17;6.35;;;;;;;20.74;67.75;100073.22;5054887;28;20076;-64
2021/08/26 05:44:14;;;;;;;14.23;6.18;;;;;;;20.82;67.74;100070.25;5054977;28;20140;-65
2021/08/26 05:46:42;;;;;;;19.95;6.72;;;;;;;20.79;67.61;100058.78;5040384;28;20088;-64
2021/08/26 05:49:09;;;;;;;14.73;6.00;;;;;;;20.79;67.97;100059.59;5034775;28;20128;-64
2021/08/26 05:51:36;;;;;;;17.05;6.00;;;;;;;20.91;67.91;100072.91;5034963;28;20486;-64
2021/08/26 05:54:04;;;;;;;12.23;6.00;;;;;;;20.86;67.83;100059.00;5035110;28;20129;-64
2021/08/26 05:56:31;;;;;;;18.92;5.80;;;;;;;20.97;67.46;100070.63;5033395;28;20085;-65
2021/08/26 05:58:58;;;;;;;17.17;6.45;;;;;;;20.96;67.75;100075.50;5051128;28;20145;-64
2021/08/26 06:01:29;;;;;;;14.75;6.10;;;;;;;20.92;67.64;100083.09;5048792;28;20136;-64
2021/08/26 06:03:57;;;;;;;13.93;6.55;;;;;;;21.00;67.64;100084.94;5034735;28;20052;-64
2021/08/26 06:06:24;;;;;;;15.13;6.95;;;;;;;21.02;67.76;100096.72;5040291;28;20155;-64
2021/08/26 06:08:51;;;;;;;12.50;5.82;;;;;;;20.91;67.72;100078.59;5052980;28;20132;-65
2021/08/26 06:11:17;;;;;;;15.27;6.45;;;;;;;21.03;67.80;100101.25;5053619;28;20045;-65
2021/08/26 06:13:44;;;;;;;16.52;6.97;;;;;;;20.93;67.44;100084.72;5052551;28;20451;-63
2021/08/26 06:16:11;;;;;;;13.98;5.90;;;;;;;21.06;67.53;100109.03;5040886;28;20080;-63
2021/08/26 06:18:38;;;;;;;14.07;6.63;;;;;;;21.00;67.82;100104.81;5034150;28;20045;-63
2021/08/26 06:21:05;;;;;;;16.75;6.40;;;;;;;20.85;68.09;100102.72;5034023;28;20124;-64
2021/08/26 06:23:32;;;;;;;18.50;6.65;;;;;;;20.74;68.19;100107.28;5034128;28;20106;-63
2021/08/26 06:25:59;;;;;;;13.60;6.30;;;;;;;20.66;68.86;100116.78;5034130;28;20096;-63
2021/08/26 06:28:26;;;;;;;16.90;8.32;;;;;;;20.58;68.75;100113.72;5051474;28;20091;-63
2021/08/26 06:30:53;;;;;;;21.35;7.35;;;;;;;20.57;68.95;100114.88;5052489;28;20103;-63
2021/08/26 06:33:19;;;;;;;18.15;7.47;;;;;;;20.49;69.32;100118.66;5053754;28;20136;-64
2021/08/26 06:35:46;;;;;;;21.77;8.40;;;;;;;20.49;69.32;100118.66;5053851;28;20605;-64
2021/08/26 06:38:13;;;;;;;23.38;10.05;;;;;;;20.40;69.65;100114.31;5053868;28;20174;-63
2021/08/26 06:40:40;;;;;;;15.80;9.20;;;;;;;20.42;69.68;100120.47;5051082;28;20114;-63
2021/08/26 06:43:07;;;;;;;20.80;7.63;;;;;;;20.50;69.47;100119.50;5033862;28;20096;-63
2021/08/26 06:45:34;;;;;;;24.27;9.45;;;;;;;20.56;69.35;100123.75;5034099;28;20085;-64
2021/08/26 06:48:01;;;;;;;22.30;8.27;;;;;;;20.50;69.20;100109.00;5033579;28;20052;-63
2021/08/26 06:50:28;;;;;;;19.95;8.30;;;;;;;20.57;69.37;100126.22;5033574;28;20441;-64
2021/08/26 06:52:55;;;;;;;27.80;8.00;;;;;;;20.51;69.22;100105.00;5033270;28;20124;-63
2021/08/26 06:55:21;;;;;;;16.58;7.07;;;;;;;20.58;69.39;100127.91;5033626;28;20049;-63
2021/08/26 06:57:48;;;;;;;18.35;7.63;;;;;;;20.57;69.49;100129.06;5033276;28;20133;-62
2021/08/26 07:00:16;;;;;;;21.17;8.48;;;;;;;20.52;69.69;100126.50;5033322;28;20465;-63
2021/08/26 07:02:42;;;;;;;22.92;9.82;;;;;;;20.55;69.40;100127.78;5050540;28;20516;-63
2021/08/26 07:05:10;;;;;;;17.00;7.88;;;;;;;20.55;69.58;100125.78;5051730;28;20497;-64
2021/08/26 07:07:37;;;;;;;14.95;6.53;;;;;;;20.45;69.94;100134.75;5033288;28;20053;-62
2021/08/26 07:10:04;;;;;;;16.27;7.45;;;;;;;20.36;70.43;100131.22;5033197;28;20084;-63
2021/08/26 07:12:32;;;;;;;20.20;8.55;;;;;;;20.36;70.69;100129.19;5033221;28;20080;-63
2021/08/26 07:15:00;;;;;;;19.40;9.20;;;;;;;20.35;70.57;100138.91;5033265;28;20123;-63
2021/08/26 07:17:27;;;;;;;17.40;9.07;;;;;;;20.17;70.97;100116.81;5032335;28;20057;-62
2021/08/26 07:19:54;;;;;;;24.38;8.50;;;;;;;20.05;71.25;100121.31;5040843;28;20127;-63
2021/08/26 07:22:21;;;;;;;21.55;10.25;;;;;;;20.15;71.18;100153.22;5052964;28;20131;-63
2021/08/26 07:24:48;;;;;;;31.13;10.60;;;;;;;20.25;70.98;100159.22;5052802;28;20095;-63
2021/08/26 07:27:15;;;;;;;30.40;10.93;;;;;;;20.29;70.51;100145.16;5051609;28;20136;-63
2021/08/26 07:29:42;;;;;;;29.25;11.35;;;;;;;20.33;70.50;100132.75;5039915;28;20049;-63
2021/08/26 07:32:09;;;;;;;28.45;11.65;;;;;;;20.33;70.81;100148.94;5032738;28;20128;-63
2021/08/26 07:34:35;;;;;;;25.15;11.23;;;;;;;20.21;70.93;100135.63;5033061;28;20084;-63
2021/08/26 07:37:02;;;;;;;26.17;12.27;;;;;;;20.29;70.67;100136.66;5032575;28;20084;-63
2021/08/26 07:39:29;;;;;;;23.20;10.65;;;;;;;20.35;70.76;100146.59;5032590;28;20084;-63
2021/08/26 07:41:56;;;;;;;26.00;11.88;;;;;;;20.42;70.59;100143.16;5032367;28;20080;-63
2021/08/26 07:44:23;;;;;;;22.17;11.00;;;;;;;20.48;70.41;100151.06;5032474;28;20543;-63
2021/08/26 07:46:50;;;;;;;21.50;11.55;;;;;;;20.39;70.47;100135.34;5032591;28;20129;-63
2021/08/26 07:49:16;;;;;;;27.27;11.88;;;;;;;20.53;70.23;100147.16;5032045;28;20085;-64
2021/08/26 07:51:43;;;;;;;23.17;10.68;;;;;;;20.72;69.91;100155.06;5032327;28;20092;-62
2021/08/26 07:54:10;;;;;;;25.35;11.40;;;;;;;20.84;69.85;100163.53;5032517;28;20128;-63
2021/08/26 07:56:38;;;;;;;22.85;10.90;;;;;;;20.86;69.78;100158.31;5031820;28;20128;-62
2021/08/26 07:59:05;;;;;;;23.33;10.60;;;;;;;20.95;69.68;100155.31;5032563;28;20084;-62
2021/08/26 08:01:32;;;;;;;21.50;10.70;;;;;;;21.09;69.41;100154.91;5031642;28;20085;-62
2021/08/26 08:03:59;;;;;;;26.30;10.70;;;;;;;21.22;69.19;100163.00;5032301;28;20056;-63
2021/08/26 08:06:25;;;;;;;22.73;10.18;;;;;;;21.36;68.84;100159.78;5032178;28;20053;-63
2021/08/26 08:08:52;;;;;;;23.33;10.02;;;;;;;21.47;68.54;100163.75;5032551;28;20042;-63
2021/08/26 08:11:19;;;;;;;22.30;9.70;;;;;;;21.37;68.88;100152.94;5038597;28;20532;-63
2021/08/26 08:14:01;;;;;;;24.48;11.93;;;;;;;21.57;68.42;100156.69;5032151;28;20057;-63
2021/08/26 08:16:30;;;;;;;19.73;9.55;;;;;;;21.67;68.52;100161.03;5031894;28;20045;-63
2021/08/26 08:18:57;;;;;;;24.85;10.30;;;;;;;21.82;68.20;100165.91;5051976;28;20124;-63
2021/08/26 08:21:23;;;;;;;21.88;10.57;;;;;;;21.75;68.04;100157.19;5051925;28;20091;-63
2021/08/26 08:23:50;;;;;;;15.45;9.65;;;;;;;21.72;68.07;100160.75;5052344;28;20132;-63
2021/08/26 08:26:17;;;;;;;18.83;10.30;;;;;;;21.70;67.76;100163.13;5041783;28;20128;-63
2021/08/26 08:28:44;;;;;;;21.45;11.00;;;;;;;21.72;68.15;100169.28;5032428;28;20129;-63
2021/08/26 08:31:11;;;;;;;17.15;9.55;;;;;;;21.82;67.79;100168.75;5031795;28;20052;-63
2021/08/26 08:33:38;;;;;;;18.05;9.75;;;;;;;22.02;67.41;100172.50;5031875;28;20504;-64
2021/08/26 08:36:06;;;;;;;21.63;8.43;;;;;;;21.94;67.31;100153.59;5032125;28;20077;-63
2021/08/26 08:38:33;;;;;;;22.08;9.73;;;;;;;22.07;67.33;100174.25;5034704;28;20081;-63
2021/08/26 08:41:01;;;;;;;17.63;8.93;;;;;;;22.05;66.97;100151.88;5036013;28;20481;-63
2021/08/26 08:43:28;;;;;;;19.10;9.68;;;;;;;22.39;66.70;100167.38;5036016;28;20046;-63
2021/08/26 08:45:57;;;;;;;22.08;12.38;;;;;;;22.63;65.96;100162.59;5035884;28;20049;-63
2021/08/26 08:48:27;;;;;;;17.95;10.65;;;;;;;22.66;66.09;100159.03;5035773;28;20061;-63
2021/08/26 08:50:56;;;;;;;19.90;12.27;;;;;;;22.72;65.86;100163.22;5036022;28;20088;-63
2021/08/26 08:53:23;;;;;;;25.00;11.13;;;;;;;23.27;64.85;100164.03;5035762;28;20076;-63
2021/08/26 08:55:50;;;;;;;21.35;11.10;;;;;;;23.96;64.04;100174.72;5035743;28;20128;-63
2021/08/26 08:58:17;;;;;;;21.65;12.70;;;;;;;24.66;62.61;100182.81;5035746;28;20133;-63
2021/08/26 09:00:44;;;;;;;22.85;12.07;;;;;;;25.25;61.78;100184.03;5036081;28;20108;-63
2021/08/26 09:03:11;;;;;;;25.85;12.98;;;;;;;25.42;60.67;100178.94;5035714;28;20049;-63
2021/08/26 09:05:54;;;;;;;20.67;11.25;;;;;;;25.45;60.90;100184.69;5035735;28;20547;-64
2021/08/26 09:08:24;;;;;;;23.00;11.35;;;;;;;25.19;60.14;100125.59;5035633;28;20112;-63
2021/08/26 09:10:53;;;;;;;23.40;11.77;;;;;;;25.79;59.73;100192.41;5018215;28;20084;-63
2021/08/26 09:13:33;;;;;;;16.98;11.10;;;;;;;25.89;59.23;100189.69;5035157;28;20088;-63
2021/08/26 09:16:02;;;;;;;24.75;12.55;;;;;;;25.84;58.91;100190.03;5035575;28;20491;-63
2021/08/26 09:18:29;;;;;;;25.92;10.75;;;;;;;25.69;58.72;100206.19;5035901;28;20049;-63
2021/08/26 09:21:04;;;;;;;20.83;12.20;;;;;;;25.68;58.64;100193.13;5035346;28;20120;-64
2021/08/26 09:23:34;;;;;;;26.35;11.77;;;;;;;25.67;58.26;100185.75;5035309;28;20187;-64
2021/08/26 09:26:14;;;;;;;;;;;;;;;25.84;59.40;100200.66;5035471;28;20085;-64
2021/08/26 09:28:41;;;;;;;20.40;10.70;;;;;;;26.28;57.83;100209.25;5035247;28;20027;-64
2021/08/26 09:31:18;;;;;;;14.63;8.38;;;;;;;26.48;56.94;100212.72;5035194;28;20120;-64
2021/08/26 09:33:49;;;;;;;20.25;9.55;;;;;;;26.47;56.93;100213.94;5050786;28;20037;-64
2021/08/26 09:36:21;;;;;;;18.48;9.30;;;;;;;26.44;56.71;100203.25;5034856;28;20132;-63
2021/08/26 09:38:55;;;;;;;23.25;8.90;;;;;;;26.76;56.12;100212.09;5035074;28;20137;-63
2021/08/26 09:41:48;;;;;;;18.90;9.35;;;;;;;27.58;55.14;100221.13;5035077;28;20049;-63
2021/08/26 09:44:17;;;;;;;22.67;9.10;;;;;;;27.95;53.41;100230.69;5034952;28;20497;-63
2021/08/26 09:46:47;;;;;;;20.70;9.70;;;;;;;27.83;53.41;100229.84;5034446;28;20085;-64
2021/08/26 09:49:19;;;;;;;17.90;10.02;;;;;;;27.74;52.98;100232.25;5033965;28;20469;-64
2021/08/26 09:52:20;;;;;;;28.63;10.50;;;;;;;27.64;53.43;100228.13;5035220;28;20136;-64
2021/08/26 09:54:50;;;;;;;19.15;9.57;;;;;;;27.55;52.95;100230.53;5034850;28;20123;-62
2021/08/26 09:57:25;;;;;;;21.35;9.40;;;;;;;27.53;53.28;100233.00;5034484;28;20136;-62
2021/08/26 10:00:01;;;;;;;20.25;8.38;;;;;;;27.49;52.79;100220.72;5034506;28;20095;-63
2021/08/26 10:02:30;;;;;;;22.08;10.63;;;;;;;27.56;52.68;100237.94;5049066;28;20499;-62
2021/08/26 10:04:58;;;;;;;16.60;8.70;;;;;;;27.90;52.12;100240.53;5054707;28;20374;-63
2021/08/26 10:07:26;;;;;;;22.10;9.02;;;;;;;28.27;51.44;100239.34;5052501;28;20087;-63
2021/08/26 10:09:54;;;;;;;18.52;8.75;;;;;;;28.61;50.55;100215.97;5034659;28;20126;-63
2021/08/26 10:12:21;;;;;;;12.40;7.70;;;;;;;28.82;49.22;100210.19;5034368;28;20307;-63
2021/08/26 10:14:50;;;;;;;21.27;9.02;;;;;;;29.28;49.27;100250.34;5034584;28;20140;-63
2021/08/26 10:17:18;;;;;;;19.55;8.77;;;;;;;29.64;48.16;100252.28;5033989;28;20125;-63
2021/08/26 10:19:45;;;;;;;15.15;8.48;;;;;;;29.86;47.50;100248.06;5034271;28;20133;-63
2021/08/26 10:22:13;;;;;;;18.65;8.45;;;;;;;30.05;46.62;100245.88;5033622;28;20128;-63
2021/08/26 10:24:40;;;;;;;18.70;7.97;;;;;;;29.82;47.27;100263.72;5033822;28;20128;-63
2021/08/26 10:27:12;;;;;;;16.58;6.97;;;;;;;29.92;47.28;100259.97;5034080;28;20136;-63
2021/08/26 10:29:44;;;;;;;14.75;7.93;;;;;;;30.53;46.73;100253.78;5033705;28;20077;-63
2021/08/26 10:32:24;;;;;;;17.75;7.53;;;;;;;31.06;45.67;100252.50;5034145;28;20120;-63
2021/08/26 10:35:10;;;;;;;16.80;8.32;;;;;;;31.31;45.30;100250.13;5046131;28;20076;-63
2021/08/26 10:37:51;;;;;;;15.20;7.70;;;;;;;31.75;44.67;100247.56;5046983;28;20045;-64
2021/08/26 10:40:36;;;;;;;16.45;7.05;;;;;;;32.07;43.37;100242.19;5034141;28;20459;-63
2021/08/26 10:43:05;;;;;;;26.45;6.97;;;;;;;32.52;42.57;100239.00;5033878;28;20445;-63
2021/08/26 10:45:51;;;;;;;22.40;6.30;;;;;;;32.70;42.88;100244.47;5033648;28;20133;-63
2021/08/26 10:48:20;;;;;;;15.43;6.03;;;;;;;32.92;41.87;100238.28;5033615;28;20408;-63
2021/08/26 10:51:15;;;;;;;17.08;6.25;;;;;;;33.17;41.79;100235.78;5033943;28;20120;-64
2021/08/26 10:53:48;;;;;;;16.20;6.70;;;;;;;33.44;41.03;100234.84;5033411;28;20549;-64
2021/08/26 10:56:23;;;;;;;19.17;6.28;;;;;;;33.75;40.39;100243.31;5033452;28;20497;-64
2021/08/26 10:58:55;;;;;;;22.75;6.32;;;;;;;33.95;39.54;100241.19;5034006;28;20084;-64
2021/08/26 11:01:28;;;;;;;12.90;6.30;;;;;;;34.27;39.06;100248.31;5033065;28;20049;-64
2021/08/26 11:04:03;;;;;;;14.48;5.78;;;;;;;34.59;38.07;100250.44;5033332;28;20052;-64
2021/08/26 11:06:30;;;;;;;12.27;5.70;;;;;;;35.25;37.42;100268.59;5033113;28;20136;-63
2021/08/26 11:09:17;;;;;;;17.70;6.28;;;;;;;35.37;37.25;100254.13;5033310;28;20549;-64
2021/08/26 11:11:47;;;;;;;14.43;6.38;;;;;;;35.21;36.44;100267.88;5028482;28;20064;-64
2021/08/26 11:14:19;;;;;;;15.23;6.25;;;;;;;34.95;36.71;100270.63;5033081;28;20383;-63
2021/08/26 11:16:48;;;;;;;17.92;7.15;;;;;;;34.74;37.00;100251.72;5033425;28;20049;-64
2021/08/26 11:19:15;;;;;;;14.93;6.93;;;;;;;34.43;36.82;100266.56;5032939;28;20107;-64
2021/08/26 11:21:41;;;;;;;20.30;6.95;;;;;;;34.38;37.10;100263.38;5033020;28;20485;-63
2021/08/26 11:24:22;;;;;;;16.48;6.82;;;;;;;34.47;37.23;100246.16;5032967;28;20095;-64
2021/08/26 11:26:58;;;;;;;12.20;6.28;;;;;;;34.56;36.58;100240.56;5033101;28;20052;-63
2021/08/26 11:29:24;;;;;;;22.50;8.40;;;;;;;34.69;36.62;100260.94;5032844;28;20560;-63